Time;durP1;ratioP1;P1;durP2;ratioP2;P2;SDS_P1;SDS_P2;PMS_P1;PMS_P2;Temp;Humidity;BMP_temperature;BMP_pressure;BME280_temperature;BME280_humidity;BME280_pressure;Samples;Min_cycle;Max_cycle;Signal;HPM_P1;HPM_P2
2020/12/12 00:00:52;;;;;;;16.67;10.93;;;5.50;99.90;;;;;;4166024;28;20093;-71
2020/12/12 00:02:52;;;;;;;16.63;10.55;;;5.50;99.90;;;;;;4166714;28;20046;-71
2020/12/12 00:04:53;;;;;;;18.95;11.85;;;5.50;99.90;;;;;;4168695;28;20021;-71
2020/12/12 00:06:58;;;;;;;16.73;11.38;;;5.50;99.90;;;;;;4166146;28;20021;-71
2020/12/12 00:08:58;;;;;;;18.42;11.10;;;5.50;99.90;;;;;;4167077;28;20080;-71
2020/12/12 00:10:59;;;;;;;16.75;10.50;;;5.50;99.90;;;;;;4164781;28;20025;-71
2020/12/12 00:13:00;;;;;;;16.30;10.13;;;5.50;99.90;;;;;;4168096;28;20021;-71
2020/12/12 00:15:00;;;;;;;14.98;10.18;;;5.50;99.90;;;;;;4166806;28;20033;-71
2020/12/12 00:17:01;;;;;;;16.95;10.68;;;5.60;99.90;;;;;;4166345;28;20036;-71
2020/12/12 00:19:02;;;;;;;14.70;10.02;;;5.60;99.90;;;;;;4166953;28;20018;-71
2020/12/12 00:21:03;;;;;;;16.17;9.45;;;5.60;99.90;;;;;;4142476;28;20120;-71
2020/12/12 00:23:03;;;;;;;13.25;9.30;;;5.60;99.90;;;;;;4168580;28;20025;-71
2020/12/12 00:25:05;;;;;;;14.00;9.40;;;5.70;99.90;;;;;;4164533;28;20033;-71
2020/12/12 00:27:05;;;;;;;18.58;10.63;;;5.70;99.90;;;;;;4149689;28;20032;-71
2020/12/12 00:29:06;;;;;;;13.93;9.27;;;5.70;99.90;;;;;;4167823;28;20492;-71
2020/12/12 00:31:06;;;;;;;13.63;9.50;;;5.70;99.90;;;;;;4164381;28;20108;-71
2020/12/12 00:33:07;;;;;;;13.07;8.98;;;5.70;99.90;;;;;;4166919;28;20026;-71
2020/12/12 00:35:08;;;;;;;13.05;8.82;;;5.70;99.90;;;;;;4167823;28;20048;-70
2020/12/12 00:37:08;;;;;;;14.85;9.75;;;5.70;99.90;;;;;;4167606;28;20551;-70
2020/12/12 00:39:09;;;;;;;13.07;9.13;;;5.70;99.90;;;;;;4163263;28;20046;-70
2020/12/12 00:41:10;;;;;;;14.20;9.02;;;5.80;99.90;;;;;;4164275;28;20033;-71
2020/12/12 00:43:10;;;;;;;13.90;9.18;;;5.80;99.90;;;;;;4163950;28;20112;-70
2020/12/12 00:45:11;;;;;;;12.38;8.25;;;5.80;99.90;;;;;;4163168;28;20044;-70
2020/12/12 00:47:15;;;;;;;16.25;8.60;;;5.80;99.90;;;;;;4167979;28;20087;-70
2020/12/12 00:49:16;;;;;;;12.15;7.85;;;5.80;99.90;;;;;;4165690;28;20539;-70
2020/12/12 00:51:16;;;;;;;20.70;8.70;;;5.80;99.90;;;;;;4164725;28;20028;-70
2020/12/12 00:53:17;;;;;;;12.48;9.13;;;5.80;99.90;;;;;;4164562;28;20132;-70
2020/12/12 00:55:17;;;;;;;12.35;8.65;;;5.80;99.90;;;;;;4147845;28;20564;-70
2020/12/12 00:57:18;;;;;;;13.07;8.73;;;5.80;99.90;;;;;;4168726;28;20471;-70
2020/12/12 00:59:19;;;;;;;13.07;8.95;;;5.80;99.90;;;;;;4165420;28;20120;-70
2020/12/12 01:01:20;;;;;;;12.77;8.93;;;5.80;99.90;;;;;;4164895;28;20068;-71
2020/12/12 01:03:20;;;;;;;14.05;9.30;;;5.80;99.90;;;;;;4166355;28;20076;-71
2020/12/12 01:05:21;;;;;;;14.52;9.18;;;5.80;99.90;;;;;;4165631;28;20033;-71
2020/12/12 01:07:22;;;;;;;12.93;8.50;;;5.80;99.90;;;;;;4168870;28;20022;-71
2020/12/12 01:09:22;;;;;;;13.60;9.13;;;5.70;99.90;;;;;;4154540;28;20033;-71
2020/12/12 01:11:23;;;;;;;13.75;8.75;;;5.70;99.90;;;;;;4164242;28;20025;-71
2020/12/12 01:13:24;;;;;;;14.15;9.07;;;5.80;99.90;;;;;;4160217;28;20604;-71
2020/12/12 01:15:24;;;;;;;13.95;9.32;;;5.80;99.90;;;;;;4161278;28;20096;-71
2020/12/12 01:17:25;;;;;;;12.43;7.57;;;5.80;99.90;;;;;;4160035;28;20029;-71
2020/12/12 01:19:25;;;;;;;12.65;8.38;;;5.80;99.90;;;;;;4158502;28;20417;-71
2020/12/12 01:21:26;;;;;;;14.27;8.43;;;5.80;99.90;;;;;;4159475;28;20021;-71
2020/12/12 01:23:28;;;;;;;13.05;8.85;;;5.80;99.90;;;;;;4141905;28;20026;-71
2020/12/12 01:25:28;;;;;;;13.88;9.05;;;5.80;99.90;;;;;;4160329;28;20044;-71
2020/12/12 01:27:29;;;;;;;14.05;9.38;;;5.80;99.90;;;;;;4160266;28;20021;-71
2020/12/12 01:29:29;;;;;;;13.02;8.77;;;5.80;99.90;;;;;;4160517;28;20064;-71
2020/12/12 01:31:30;;;;;;;11.85;8.18;;;5.80;99.90;;;;;;4158501;28;20044;-71
2020/12/12 01:33:30;;;;;;;10.02;7.65;;;5.80;99.90;;;;;;4153849;28;20041;-71
2020/12/12 01:35:31;;;;;;;12.32;8.38;;;5.80;99.90;;;;;;4160461;28;20029;-71
2020/12/12 01:37:32;;;;;;;15.35;8.43;;;5.80;99.90;;;;;;4160396;28;20029;-71
2020/12/12 01:39:32;;;;;;;12.80;9.10;;;5.80;99.90;;;;;;4158832;28;20029;-69
2020/12/12 01:41:33;;;;;;;13.30;8.18;;;5.80;99.90;;;;;;4158158;28;20026;-69
2020/12/12 01:43:33;;;;;;;14.50;9.90;;;5.90;99.90;;;;;;4158037;28;20037;-69
2020/12/12 01:45:35;;;;;;;13.43;8.20;;;5.90;99.90;;;;;;4160273;28;20036;-72
2020/12/12 01:47:36;;;;;;;12.48;8.50;;;5.90;99.90;;;;;;4159583;28;20385;-70
2020/12/12 01:49:38;;;;;;;12.15;9.23;;;5.90;99.90;;;;;;4159745;28;20150;-71
2020/12/12 01:51:39;;;;;;;12.40;8.60;;;5.90;99.90;;;;;;4159465;28;20033;-70
2020/12/12 01:53:40;;;;;;;11.15;7.65;;;5.90;99.90;;;;;;4158100;28;20103;-70
2020/12/12 01:55:46;;;;;;;10.75;7.78;;;5.90;99.90;;;;;;4160203;28;20037;-70
2020/12/12 01:57:50;;;;;;;14.02;8.20;;;5.90;99.90;;;;;;4159993;28;20474;-71
2020/12/12 01:59:51;;;;;;;13.48;9.23;;;5.90;99.90;;;;;;4159281;28;20041;-70
2020/12/12 02:01:56;;;;;;;15.15;9.52;;;5.90;99.90;;;;;;4159568;28;20018;-70
2020/12/12 02:03:57;;;;;;;12.63;8.68;;;5.90;99.90;;;;;;4158241;28;20044;-70
2020/12/12 02:06:01;;;;;;;12.73;8.60;;;5.90;99.90;;;;;;4164451;28;20043;-71
2020/12/12 02:08:03;;;;;;;14.85;9.57;;;5.90;99.90;;;;;;4152021;28;20060;-70
2020/12/12 02:10:04;;;;;;;13.05;8.90;;;5.90;99.90;;;;;;4159252;28;20481;-70
2020/12/12 02:12:04;;;;;;;11.70;7.93;;;5.90;99.90;;;;;;4159846;28;20048;-70
2020/12/12 02:14:08;;;;;;;11.73;8.38;;;5.90;99.90;;;;;;4158806;28;20493;-70
2020/12/12 02:16:09;;;;;;;12.35;8.13;;;5.90;99.90;;;;;;4159527;28;20444;-70
2020/12/12 02:18:20;;;;;;;14.95;8.68;;;5.90;99.90;;;;;;4159683;28;20033;-71
2020/12/12 02:20:21;;;;;;;13.50;9.05;;;5.90;99.90;;;;;;4157648;28;20038;-70
2020/12/12 02:22:22;;;;;;;12.63;8.20;;;5.90;99.90;;;;;;4158747;28;20442;-70
2020/12/12 02:24:23;;;;;;;12.38;8.00;;;6.00;99.90;;;;;;4159267;28;20037;-71
2020/12/12 02:26:24;;;;;;;12.00;8.52;;;6.00;99.90;;;;;;4159408;28;20124;-70
2020/12/12 02:28:34;;;;;;;11.45;7.28;;;6.00;99.90;;;;;;4159151;28;20034;-70
2020/12/12 02:30:34;;;;;;;12.18;8.15;;;6.00;99.90;;;;;;4157596;28;20103;-71
2020/12/12 02:32:36;;;;;;;10.75;7.18;;;6.00;99.90;;;;;;4158500;28;20033;-70
2020/12/12 02:34:37;;;;;;;11.07;7.65;;;6.00;99.90;;;;;;4159675;28;20060;-70
2020/12/12 02:36:39;;;;;;;11.82;8.30;;;6.10;99.90;;;;;;4159240;28;20479;-70
2020/12/12 02:38:42;;;;;;;11.77;8.00;;;6.10;99.90;;;;;;4159433;28;20366;-70
2020/12/12 02:40:48;;;;;;;12.50;7.85;;;6.10;99.90;;;;;;4159311;28;22127;-70
2020/12/12 02:42:48;;;;;;;11.57;7.72;;;6.10;99.90;;;;;;4158922;28;20041;-70
2020/12/12 02:44:55;;;;;;;12.45;7.57;;;6.10;99.90;;;;;;4159577;28;20666;-70
2020/12/12 02:46:56;;;;;;;10.43;7.13;;;6.10;99.90;;;;;;4159461;28;20048;-70
2020/12/12 02:48:57;;;;;;;11.70;7.43;;;6.20;99.90;;;;;;4159421;28;20498;-70
2020/12/12 02:50:58;;;;;;;10.40;7.07;;;6.10;99.90;;;;;;4157109;28;20032;-71
2020/12/12 02:52:59;;;;;;;11.00;7.47;;;6.20;99.90;;;;;;4157661;28;20509;-71
2020/12/12 02:54:59;;;;;;;11.45;7.90;;;6.20;99.90;;;;;;4158757;28;20040;-70
2020/12/12 02:57:00;;;;;;;10.32;7.68;;;6.20;99.90;;;;;;4150689;28;20045;-70
2020/12/12 02:59:01;;;;;;;11.80;7.90;;;6.20;99.90;;;;;;4159061;28;20029;-70
2020/12/12 03:01:03;;;;;;;10.18;6.35;;;6.20;99.90;;;;;;4158714;28;20084;-70
2020/12/12 03:03:03;;;;;;;9.65;6.63;;;6.20;99.90;;;;;;4159267;28;20228;-70
2020/12/12 03:05:05;;;;;;;9.18;6.88;;;6.20;99.90;;;;;;4162932;28;20030;-70
2020/12/12 03:07:06;;;;;;;9.95;6.75;;;6.30;99.90;;;;;;4161871;28;20026;-70
2020/12/12 03:09:07;;;;;;;10.98;7.55;;;6.30;99.90;;;;;;4158847;28;20541;-70
2020/12/12 03:11:07;;;;;;;11.52;7.55;;;6.30;99.90;;;;;;4157157;28;20026;-70
2020/12/12 03:13:08;;;;;;;11.50;7.82;;;6.30;99.90;;;;;;4159019;28;20462;-71
2020/12/12 03:15:10;;;;;;;11.77;7.30;;;6.30;99.90;;;;;;4158918;28;20022;-70
2020/12/12 03:17:13;;;;;;;9.68;6.63;;;6.30;99.90;;;;;;4158213;28;20109;-70
2020/12/12 03:19:13;;;;;;;9.63;6.85;;;6.30;99.90;;;;;;4159322;28;20386;-71
2020/12/12 03:21:14;;;;;;;9.65;7.00;;;6.30;99.90;;;;;;4149753;28;20448;-70
2020/12/12 03:23:14;;;;;;;8.52;6.55;;;6.30;99.90;;;;;;4152960;28;20601;-70
2020/12/12 03:25:15;;;;;;;13.73;7.00;;;6.30;99.90;;;;;;4156896;28;20109;-70
2020/12/12 03:27:15;;;;;;;8.05;5.80;;;6.40;99.90;;;;;;4158743;28;20497;-70
2020/12/12 03:29:16;;;;;;;9.88;6.88;;;6.30;99.90;;;;;;4157595;28;20029;-70
2020/12/12 03:31:17;;;;;;;10.27;7.03;;;6.40;99.90;;;;;;4158663;28;20030;-71
2020/12/12 03:33:18;;;;;;;9.75;6.18;;;6.40;99.90;;;;;;4158365;28;20200;-70
2020/12/12 03:35:18;;;;;;;10.30;7.05;;;6.40;99.90;;;;;;4159002;28;20053;-71
2020/12/12 03:37:19;;;;;;;9.23;6.55;;;6.40;99.90;;;;;;4159205;28;20053;-71
2020/12/12 03:39:19;;;;;;;11.13;7.35;;;6.50;99.90;;;;;;4157665;28;20462;-70
2020/12/12 03:41:20;;;;;;;10.65;6.93;;;6.40;99.90;;;;;;4158780;28;20113;-70
2020/12/12 03:43:22;;;;;;;10.63;7.38;;;6.40;99.90;;;;;;4160184;28;20065;-71
2020/12/12 03:45:23;;;;;;;8.82;6.50;;;6.40;99.90;;;;;;4156133;28;20049;-70
2020/12/12 03:47:24;;;;;;;13.65;7.78;;;6.50;99.90;;;;;;4162298;28;20036;-70
2020/12/12 03:49:25;;;;;;;11.02;7.43;;;6.40;99.90;;;;;;4160344;28;20338;-70
2020/12/12 03:51:25;;;;;;;9.85;6.70;;;6.40;99.90;;;;;;4159449;28;20042;-70
2020/12/12 03:53:26;;;;;;;9.27;6.70;;;6.50;99.90;;;;;;4158747;28;20026;-70
2020/12/12 03:55:26;;;;;;;8.57;6.75;;;6.50;99.90;;;;;;4161446;28;20029;-70
2020/12/12 03:57:27;;;;;;;11.35;7.35;;;6.50;99.90;;;;;;4161950;28;20037;-71
2020/12/12 03:59:28;;;;;;;10.10;6.93;;;6.50;99.90;;;;;;4160181;28;20121;-70
2020/12/12 04:01:28;;;;;;;13.32;7.20;;;6.50;99.90;;;;;;4161312;28;20087;-71
2020/12/12 04:03:29;;;;;;;9.90;7.10;;;6.50;99.90;;;;;;4159453;28;20125;-70
2020/12/12 04:05:29;;;;;;;10.27;7.15;;;6.50;99.90;;;;;;4160168;28;20160;-70
2020/12/12 04:07:30;;;;;;;9.93;6.78;;;6.50;99.90;;;;;;4161457;28;20476;-70
2020/12/12 04:09:31;;;;;;;12.25;7.47;;;6.50;99.90;;;;;;4161865;28;20038;-70
2020/12/12 04:11:32;;;;;;;12.32;7.60;;;6.50;99.90;;;;;;4161022;28;20029;-70
2020/12/12 04:13:33;;;;;;;11.32;7.43;;;6.60;99.90;;;;;;4160050;28;20441;-70
2020/12/12 04:15:33;;;;;;;8.88;6.45;;;6.50;99.90;;;;;;4161721;28;20040;-70
2020/12/12 04:17:34;;;;;;;9.98;6.70;;;6.50;99.90;;;;;;4159081;28;20063;-70
2020/12/12 04:19:35;;;;;;;10.23;7.18;;;6.60;99.90;;;;;;4158768;28;20108;-70
2020/12/12 04:21:36;;;;;;;12.18;6.85;;;6.50;99.90;;;;;;4160314;28;20107;-70
2020/12/12 04:23:36;;;;;;;9.68;7.10;;;6.50;99.90;;;;;;4161017;28;20040;-70
2020/12/12 04:25:37;;;;;;;10.73;7.50;;;6.50;99.90;;;;;;4143465;28;20026;-70
2020/12/12 04:27:38;;;;;;;9.75;6.95;;;6.50;99.90;;;;;;4155324;28;20531;-70
2020/12/12 04:29:39;;;;;;;11.55;7.88;;;6.50;99.90;;;;;;4158308;28;20087;-70
2020/12/12 04:31:39;;;;;;;11.25;7.63;;;6.50;99.90;;;;;;4160166;28;20030;-70
2020/12/12 04:33:40;;;;;;;11.32;7.68;;;6.60;99.90;;;;;;4160515;28;20087;-71
2020/12/12 04:35:41;;;;;;;11.48;7.75;;;6.60;99.90;;;;;;4161415;28;20513;-70
2020/12/12 04:37:41;;;;;;;12.95;8.40;;;6.60;99.90;;;;;;4161041;28;20033;-70
2020/12/12 04:39:42;;;;;;;12.07;8.00;;;6.50;99.90;;;;;;4161100;28;20056;-70
2020/12/12 04:41:44;;;;;;;11.32;8.18;;;6.60;99.90;;;;;;4158798;28;20040;-70
2020/12/12 04:43:45;;;;;;;12.38;7.93;;;6.60;99.90;;;;;;4161026;28;20092;-70
2020/12/12 04:45:47;;;;;;;12.77;8.35;;;6.60;99.90;;;;;;4160939;28;20053;-70
2020/12/12 04:47:50;;;;;;;;;;;6.60;99.90;;;;;;4162485;28;20033;-70
2020/12/12 04:49:50;;;;;;;12.68;8.35;;;6.60;99.90;;;;;;4159847;28;20065;-70
2020/12/12 04:51:51;;;;;;;12.00;7.97;;;6.60;99.90;;;;;;4159609;28;20047;-70
2020/12/12 04:53:56;;;;;;;;;;;6.60;99.90;;;;;;4160783;28;20029;-70
2020/12/12 04:55:57;;;;;;;12.45;8.13;;;6.60;99.90;;;;;;4160655;28;20319;-70
2020/12/12 04:58:00;;;;;;;13.18;9.00;;;6.60;99.90;;;;;;4160781;28;20037;-70
2020/12/12 05:00:10;;;;;;;12.48;8.80;;;6.60;99.90;;;;;;4159167;28;20048;-70
2020/12/12 05:02:13;;;;;;;13.27;9.00;;;6.60;99.90;;;;;;4156438;28;20038;-70
2020/12/12 05:04:13;;;;;;;15.32;9.23;;;6.60;99.90;;;;;;4160626;28;20048;-70
2020/12/12 05:06:14;;;;;;;14.52;9.00;;;6.60;99.90;;;;;;4164997;28;20072;-70
2020/12/12 05:08:15;;;;;;;13.40;8.52;;;6.60;99.90;;;;;;4160407;28;20092;-70
2020/12/12 05:10:15;;;;;;;14.43;9.43;;;6.60;99.90;;;;;;4160703;28;20069;-70
2020/12/12 05:12:16;;;;;;;13.80;9.38;;;6.60;99.90;;;;;;4160001;28;20405;-70
2020/12/12 05:14:17;;;;;;;13.38;9.10;;;6.50;99.90;;;;;;4159997;28;20038;-70
2020/12/12 05:16:19;;;;;;;13.60;8.98;;;6.60;99.90;;;;;;4160583;28;20045;-70
2020/12/12 05:18:20;;;;;;;13.45;9.55;;;6.60;99.90;;;;;;4163119;28;20038;-70
2020/12/12 05:20:21;;;;;;;14.45;9.82;;;6.60;99.90;;;;;;4167963;28;20052;-70
2020/12/12 05:22:23;;;;;;;13.70;9.27;;;6.60;99.90;;;;;;4166866;28;20080;-70
2020/12/12 05:24:25;;;;;;;13.38;9.10;;;6.60;99.90;;;;;;4164721;28;20030;-70
2020/12/12 05:26:29;;;;;;;13.05;8.77;;;6.60;99.90;;;;;;4160299;28;20120;-70
2020/12/12 05:28:30;;;;;;;13.90;9.45;;;6.60;99.90;;;;;;4159779;28;20044;-70
2020/12/12 05:30:34;;;;;;;14.63;8.63;;;6.60;99.90;;;;;;4160877;28;20042;-71
2020/12/12 05:32:34;;;;;;;13.05;9.05;;;6.60;99.90;;;;;;4164706;28;20052;-70
2020/12/12 05:34:35;;;;;;;16.88;10.65;;;6.60;99.90;;;;;;4158178;28;20038;-70
2020/12/12 05:36:38;;;;;;;15.60;10.25;;;6.60;99.90;;;;;;4142721;28;20040;-70
2020/12/12 05:38:39;;;;;;;13.98;9.73;;;6.60;99.90;;;;;;4165096;28;20034;-70
2020/12/12 05:40:42;;;;;;;13.45;9.40;;;6.60;99.90;;;;;;4139857;28;20051;-70
2020/12/12 05:42:43;;;;;;;14.50;10.27;;;6.60;99.90;;;;;;4158223;28;20525;-70
2020/12/12 05:44:47;;;;;;;16.55;10.65;;;6.60;99.90;;;;;;4159799;28;20168;-71
2020/12/12 05:46:48;;;;;;;15.10;9.32;;;6.60;99.90;;;;;;4156805;28;20117;-70
2020/12/12 05:48:50;;;;;;;13.05;9.88;;;6.60;99.90;;;;;;4158357;28;20037;-70
2020/12/12 05:50:51;;;;;;;14.60;9.63;;;6.60;99.90;;;;;;4158379;28;20453;-70
2020/12/12 05:52:53;;;;;;;15.85;9.95;;;6.60;99.90;;;;;;4159061;28;20104;-70
2020/12/12 05:54:54;;;;;;;14.43;10.15;;;6.60;99.90;;;;;;4160082;28;20029;-70
2020/12/12 05:56:56;;;;;;;14.77;10.13;;;6.60;99.90;;;;;;4159457;28;20128;-70
2020/12/12 05:58:59;;;;;;;16.42;10.65;;;6.60;99.90;;;;;;4159725;28;20033;-70
2020/12/12 06:01:00;;;;;;;18.45;11.52;;;6.50;99.90;;;;;;4159781;28;20038;-70
2020/12/12 06:03:05;;;;;;;15.25;10.52;;;6.50;99.90;;;;;;4162927;28;20041;-70
2020/12/12 06:05:06;;;;;;;15.93;10.60;;;6.50;99.90;;;;;;4159325;28;20493;-70
2020/12/12 06:07:15;;;;;;;17.38;10.45;;;6.60;99.90;;;;;;4158699;28;20037;-71
2020/12/12 06:09:16;;;;;;;16.92;9.77;;;6.60;99.90;;;;;;4158829;28;20029;-70
2020/12/12 06:11:21;;;;;;;15.65;10.73;;;6.60;99.90;;;;;;4159550;28;20117;-70
2020/12/12 06:13:24;;;;;;;17.00;11.40;;;6.60;99.90;;;;;;4158856;28;20037;-70
2020/12/12 06:15:37;;;;;;;16.30;10.45;;;6.60;99.90;;;;;;4159286;28;20037;-70
2020/12/12 06:17:59;;;;;;;17.30;11.45;;;6.60;99.90;;;;;;4159643;28;20105;-70
2020/12/12 06:20:01;;;;;;;17.17;11.63;;;6.60;99.90;;;;;;4141387;28;20053;-70
2020/12/12 06:22:02;;;;;;;16.33;10.73;;;6.60;99.90;;;;;;4149855;28;20417;-70
2020/12/12 06:24:08;;;;;;;16.00;11.05;;;6.60;99.90;;;;;;4158391;28;21483;-71
2020/12/12 06:26:10;;;;;;;16.33;11.05;;;6.60;99.90;;;;;;4163386;28;20538;-71
2020/12/12 06:28:17;;;;;;;16.25;10.68;;;6.60;99.90;;;;;;4144305;28;20045;-71
2020/12/12 06:30:21;;;;;;;17.85;11.52;;;6.70;99.90;;;;;;4156066;28;20042;-71
2020/12/12 06:32:22;;;;;;;16.52;11.55;;;6.70;99.90;;;;;;4156593;28;20037;-71
2020/12/12 06:34:46;;;;;;;16.65;11.45;;;6.70;99.90;;;;;;4166562;28;20114;-71
2020/12/12 06:36:47;;;;;;;16.20;10.90;;;6.70;99.90;;;;;;4160393;28;20048;-71
2020/12/12 06:38:48;;;;;;;17.73;11.47;;;6.70;99.90;;;;;;4134869;28;20049;-71
2020/12/12 06:40:59;;;;;;;19.60;11.82;;;6.70;99.90;;;;;;4154149;28;20721;-71
2020/12/12 06:43:00;;;;;;;16.00;10.77;;;6.70;99.90;;;;;;4159447;28;20041;-71
2020/12/12 06:45:21;;;;;;;16.35;10.98;;;6.70;99.90;;;;;;4157343;28;20053;-71
2020/12/12 06:47:41;;;;;;;17.10;11.05;;;6.70;99.90;;;;;;4154675;28;20545;-71
2020/12/12 06:49:42;;;;;;;17.17;11.20;;;6.70;99.90;;;;;;4156801;28;20047;-71
2020/12/12 06:51:42;;;;;;;17.48;11.75;;;6.70;99.90;;;;;;4157689;28;20038;-71
2020/12/12 06:53:43;;;;;;;16.50;10.77;;;6.80;99.90;;;;;;4150438;28;20121;-71
2020/12/12 06:55:43;;;;;;;15.85;10.88;;;6.80;99.90;;;;;;4158860;28;20072;-71
2020/12/12 06:57:46;;;;;;;16.63;11.23;;;6.80;99.90;;;;;;4144693;28;20046;-71
2020/12/12 06:59:50;;;;;;;19.45;12.50;;;6.70;99.90;;;;;;4154166;28;20122;-71
2020/12/12 07:01:53;;;;;;;18.58;11.75;;;6.80;99.90;;;;;;4164322;28;20470;-71
2020/12/12 07:03:57;;;;;;;;;;;6.70;99.90;;;;;;4161742;28;20490;-71
2020/12/12 07:06:06;;;;;;;19.45;11.93;;;6.70;99.90;;;;;;4166752;28;19909;-71
2020/12/12 07:08:11;;;;;;;16.67;10.98;;;6.70;99.90;;;;;;4159618;28;20036;-71
2020/12/12 07:10:12;;;;;;;17.63;11.90;;;6.70;99.90;;;;;;4162326;28;20435;-71
2020/12/12 07:12:12;;;;;;;21.50;13.02;;;6.70;99.90;;;;;;4161682;28;20033;-71
2020/12/12 07:14:13;;;;;;;18.67;11.73;;;6.70;99.90;;;;;;4159557;28;20036;-71
2020/12/12 07:16:15;;;;;;;16.42;11.10;;;6.70;99.90;;;;;;4162897;28;20324;-73
2020/12/12 07:18:15;;;;;;;18.98;12.65;;;6.80;99.90;;;;;;4166516;28;20047;-73
2020/12/12 07:20:16;;;;;;;18.88;11.38;;;6.80;99.90;;;;;;4169200;28;20052;-73
2020/12/12 07:22:17;;;;;;;20.98;13.27;;;6.70;99.90;;;;;;4164714;28;20128;-73
2020/12/12 07:24:17;;;;;;;20.73;12.93;;;6.70;99.90;;;;;;4163751;28;20045;-73
2020/12/12 07:26:18;;;;;;;19.65;12.82;;;6.70;99.90;;;;;;4163004;28;20270;-73
2020/12/12 07:28:19;;;;;;;19.45;12.30;;;6.80;99.90;;;;;;4163251;28;20404;-73
2020/12/12 07:30:19;;;;;;;19.90;12.57;;;6.70;99.90;;;;;;4164477;28;20068;-73
2020/12/12 07:32:20;;;;;;;18.85;12.43;;;6.80;99.90;;;;;;4163089;28;20025;-73
2020/12/12 07:34:21;;;;;;;19.38;13.07;;;6.80;99.90;;;;;;4166677;28;20029;-73
2020/12/12 07:36:22;;;;;;;21.50;13.38;;;6.70;99.90;;;;;;4165926;28;20042;-73
2020/12/12 07:38:23;;;;;;;25.00;14.02;;;6.70;99.90;;;;;;4166823;28;20516;-73
2020/12/12 07:40:33;;;;;;;22.27;13.70;;;6.80;99.90;;;;;;4166009;28;20475;-73
2020/12/12 07:42:35;;;;;;;22.88;13.75;;;6.80;99.90;;;;;;4165488;28;20030;-73
2020/12/12 07:44:43;;;;;;;22.13;13.70;;;6.80;99.90;;;;;;4166253;28;20068;-73
2020/12/12 07:47:00;;;;;;;20.55;13.35;;;6.80;99.90;;;;;;4164009;28;20483;-73
2020/12/12 07:49:01;;;;;;;21.35;12.10;;;6.80;99.90;;;;;;4162544;28;20030;-73
2020/12/12 07:51:14;;;;;;;20.75;12.15;;;6.80;99.90;;;;;;4165385;28;20047;-73
2020/12/12 07:53:17;;;;;;;19.55;12.95;;;6.80;99.90;;;;;;4163103;28;20077;-73
2020/12/12 07:55:23;;;;;;;;;;;6.80;99.90;;;;;;4165518;28;20108;-73
2020/12/12 07:57:24;;;;;;;18.33;10.88;;;6.80;99.90;;;;;;4165169;28;20263;-73
2020/12/12 07:59:24;;;;;;;17.25;10.93;;;6.80;99.90;;;;;;4157642;28;20029;-73
2020/12/12 08:01:25;;;;;;;17.98;11.73;;;6.90;99.90;;;;;;4142808;28;20386;-73
2020/12/12 08:03:26;;;;;;;17.25;11.98;;;6.80;99.90;;;;;;4160763;28;20052;-73
2020/12/12 08:05:27;;;;;;;19.15;12.13;;;6.80;99.90;;;;;;4165509;28;20091;-73
2020/12/12 08:07:30;;;;;;;17.67;11.75;;;6.90;99.90;;;;;;4168432;28;20030;-73
2020/12/12 08:09:31;;;;;;;21.00;12.82;;;6.90;99.90;;;;;;4165829;28;20304;-73
2020/12/12 08:11:32;;;;;;;20.63;11.85;;;6.90;99.90;;;;;;4161810;28;20039;-74
2020/12/12 08:13:33;;;;;;;21.73;13.13;;;6.90;99.90;;;;;;4164871;28;20034;-73
2020/12/12 08:15:39;;;;;;;19.92;12.60;;;6.90;99.90;;;;;;4163319;28;20033;-73
2020/12/12 08:17:39;;;;;;;16.13;11.20;;;6.90;99.90;;;;;;4161846;28;20037;-73
2020/12/12 08:19:48;;;;;;;19.63;12.82;;;6.90;99.90;;;;;;4164454;28;20037;-73
2020/12/12 08:22:00;;;;;;;19.85;12.27;;;6.90;99.90;;;;;;4159172;28;20405;-74
2020/12/12 08:24:05;;;;;;;20.13;13.07;;;6.90;99.90;;;;;;4167645;28;20493;-73
2020/12/12 08:26:07;;;;;;;21.20;13.57;;;6.90;99.90;;;;;;4160779;28;20033;-72
2020/12/12 08:28:08;;;;;;;23.70;13.65;;;6.90;99.90;;;;;;4173941;28;20035;-72
2020/12/12 08:30:09;;;;;;;22.13;13.45;;;6.90;99.90;;;;;;4164408;28;20363;-72
2020/12/12 08:32:29;;;;;;;22.95;15.02;;;6.90;99.90;;;;;;4161659;28;20121;-72
2020/12/12 08:34:30;;;;;;;20.67;13.20;;;6.90;99.90;;;;;;4162698;28;20029;-72
2020/12/12 08:36:31;;;;;;;23.50;15.15;;;6.90;99.90;;;;;;4142868;28;20041;-72
2020/12/12 08:38:32;;;;;;;20.13;13.30;;;7.00;99.90;;;;;;4160218;28;20041;-72
2020/12/12 08:40:42;;;;;;;21.00;13.35;;;6.90;99.90;;;;;;4159037;28;20037;-72
2020/12/12 08:42:55;;;;;;;17.13;11.50;;;6.90;99.90;;;;;;4159006;28;20040;-72
2020/12/12 08:44:55;;;;;;;17.75;11.48;;;7.00;99.90;;;;;;4159293;28;20049;-72
2020/12/12 08:46:56;;;;;;;18.95;11.93;;;7.00;99.90;;;;;;4165797;28;20481;-72
2020/12/12 08:48:58;;;;;;;17.20;12.10;;;7.00;99.90;;;;;;4161238;28;20381;-72
2020/12/12 08:51:00;;;;;;;19.13;12.32;;;7.00;99.90;;;;;;4155811;28;20120;-72
2020/12/12 08:53:40;;;;;;;22.52;13.57;;;7.00;99.90;;;;;;4159259;28;20025;-72
2020/12/12 08:55:55;;;;;;;20.42;12.55;;;7.00;99.90;;;;;;4124251;28;20026;-72
2020/12/12 08:57:57;;;;;;;20.65;12.40;;;7.10;99.90;;;;;;4140100;28;20056;-72
2020/12/12 09:00:03;;;;;;;15.85;11.65;;;7.00;99.90;;;;;;4141246;28;20173;-72
2020/12/12 09:02:17;;;;;;;18.55;11.73;;;7.10;99.90;;;;;;4158413;28;20037;-72
2020/12/12 09:04:20;;;;;;;16.27;10.68;;;7.10;99.90;;;;;;4164480;28;20037;-72
2020/12/12 09:06:21;;;;;;;;;;;7.10;99.90;;;;;;4163004;28;20044;-72
2020/12/12 09:08:21;;;;;;;16.67;10.80;;;7.10;99.90;;;;;;4162549;28;19999;-72
2020/12/12 09:10:22;;;;;;;18.55;11.95;;;7.10;99.90;;;;;;4160166;28;20041;-72
2020/12/12 09:12:23;;;;;;;16.17;11.65;;;7.10;99.90;;;;;;4159736;28;20391;-72
2020/12/12 09:14:25;;;;;;;17.48;11.13;;;7.10;99.90;;;;;;4158340;28;20033;-72
2020/12/12 09:16:26;;;;;;;16.92;11.50;;;7.10;99.90;;;;;;4158354;28;20145;-72
2020/12/12 09:18:26;;;;;;;16.58;11.27;;;7.10;99.90;;;;;;4154579;28;20100;-72
2020/12/12 09:20:27;;;;;;;17.67;11.95;;;7.10;99.90;;;;;;4159156;28;20121;-72
2020/12/12 09:22:28;;;;;;;19.88;12.70;;;7.20;99.90;;;;;;4160020;28;20120;-72
2020/12/12 09:24:29;;;;;;;15.48;10.73;;;7.10;99.90;;;;;;4159964;28;20398;-72
2020/12/12 09:26:31;;;;;;;15.68;10.15;;;7.20;99.90;;;;;;4159832;28;20037;-72
2020/12/12 09:28:32;;;;;;;17.20;10.73;;;7.20;99.90;;;;;;4167517;28;20469;-72
2020/12/12 09:30:33;;;;;;;16.17;10.23;;;7.20;99.90;;;;;;4159392;28;20045;-72
2020/12/12 09:32:33;;;;;;;19.05;12.65;;;7.20;99.90;;;;;;4164834;28;20098;-72
2020/12/12 09:34:37;;;;;;;16.58;11.27;;;7.20;99.90;;;;;;4155698;28;20045;-72
2020/12/12 09:36:37;;;;;;;19.30;11.40;;;7.20;99.90;;;;;;4160398;28;20086;-72
2020/12/12 09:38:38;;;;;;;21.88;13.20;;;7.20;99.90;;;;;;4160186;28;20485;-72
2020/12/12 09:40:39;;;;;;;19.23;12.48;;;7.20;99.90;;;;;;4160678;28;20036;-72
2020/12/12 09:42:40;;;;;;;20.15;12.68;;;7.20;99.90;;;;;;4167371;28;20030;-72
2020/12/12 09:44:40;;;;;;;19.08;12.65;;;7.20;99.90;;;;;;4158974;28;20574;-72
2020/12/12 09:46:41;;;;;;;21.20;13.18;;;7.20;99.90;;;;;;4162879;28;20557;-72
2020/12/12 09:48:42;;;;;;;25.52;13.50;;;7.30;99.90;;;;;;4161080;28;20025;-72
2020/12/12 09:50:43;;;;;;;20.20;12.57;;;7.30;99.90;;;;;;4160284;28;20028;-72
2020/12/12 09:52:44;;;;;;;21.73;13.38;;;7.30;99.90;;;;;;4157058;28;20104;-72
2020/12/12 09:54:44;;;;;;;28.40;14.32;;;7.30;99.90;;;;;;4160095;28;20033;-72
2020/12/12 09:56:48;;;;;;;20.55;13.45;;;7.30;99.90;;;;;;4161766;28;20817;-72
2020/12/12 09:58:51;;;;;;;21.85;13.48;;;7.30;99.90;;;;;;4145019;28;20082;-72
2020/12/12 10:00:52;;;;;;;19.35;12.55;;;7.30;99.90;;;;;;4161012;28;20119;-72
2020/12/12 10:02:53;;;;;;;19.27;11.88;;;7.30;99.90;;;;;;4159835;28;20037;-72
2020/12/12 10:04:54;;;;;;;19.35;11.80;;;7.40;99.90;;;;;;4152879;28;20440;-72
2020/12/12 10:06:55;;;;;;;26.35;12.73;;;7.40;99.90;;;;;;4156312;28;20068;-72
2020/12/12 10:08:55;;;;;;;19.40;12.00;;;7.40;99.90;;;;;;4158511;28;20030;-72
2020/12/12 10:10:56;;;;;;;21.40;11.73;;;7.40;99.90;;;;;;4157878;28;20057;-72
2020/12/12 10:12:57;;;;;;;21.10;11.93;;;7.40;99.90;;;;;;4158207;28;20029;-72
2020/12/12 10:14:57;;;;;;;17.45;11.38;;;7.40;99.90;;;;;;4164078;28;20033;-72
2020/12/12 10:16:58;;;;;;;18.95;11.55;;;7.50;99.90;;;;;;4162091;28;20600;-72
2020/12/12 10:18:58;;;;;;;21.52;11.35;;;7.50;99.90;;;;;;4160991;28;20025;-72
2020/12/12 10:20:59;;;;;;;17.55;11.73;;;7.50;99.90;;;;;;4158540;28;20029;-72
2020/12/12 10:23:00;;;;;;;23.63;12.07;;;7.50;99.90;;;;;;4157500;28;20535;-72
2020/12/12 10:25:00;;;;;;;18.02;11.88;;;7.50;99.90;;;;;;4152905;28;20410;-72
2020/12/12 10:27:01;;;;;;;19.65;10.75;;;7.50;99.90;;;;;;4163509;28;20321;-72
2020/12/12 10:29:01;;;;;;;22.85;12.90;;;7.60;99.90;;;;;;4159413;28;20040;-72
2020/12/12 10:31:02;;;;;;;21.27;11.73;;;7.60;99.90;;;;;;4140297;28;20557;-72
2020/12/12 10:33:03;;;;;;;21.92;12.25;;;7.60;99.90;;;;;;4162476;28;20529;-72